sensor_id;sensor_type;location;lat;lon;timestamp;P1;P2;P0
47808;PMS5003;33573;38.790;-77.084;2024-03-17T00:00:29;3;3;
47808;PMS5003;33573;38.790;-77.084;2024-03-17T00:02:54;4;2;
47808;PMS5003;33573;38.790;-77.084;2024-03-17T00:05:20;4;3;
47808;PMS5003;33573;38.790;-77.084;2024-03-17T00:07:45;3;3;
47808;PMS5003;33573;38.790;-77.084;2024-03-17T00:10:11;3;3;
47808;PMS5003;33573;38.790;-77.084;2024-03-17T00:12:37;6;4;
47808;PMS5003;33573;38.790;-77.084;2024-03-17T00:15:02;4;4;
47808;PMS5003;33573;38.790;-77.084;2024-03-17T00:17:27;4;3;
47808;PMS5003;33573;38.790;-77.084;2024-03-17T00:19:53;3;3;
47808;PMS5003;33573;38.790;-77.084;2024-03-17T00:22:18;2;2;
47808;PMS5003;33573;38.790;-77.084;2024-03-17T00:24:44;4;3;
47808;PMS5003;33573;38.790;-77.084;2024-03-17T00:27:10;3;2;
47808;PMS5003;33573;38.790;-77.084;2024-03-17T00:29:34;3;3;
47808;PMS5003;33573;38.790;-77.084;2024-03-17T00:32:00;3;3;
47808;PMS5003;33573;38.790;-77.084;2024-03-17T00:34:25;3;3;
47808;PMS5003;33573;38.790;-77.084;2024-03-17T00:36:51;2;2;
47808;PMS5003;33573;38.790;-77.084;2024-03-17T00:39:17;4;2;
47808;PMS5003;33573;38.790;-77.084;2024-03-17T00:41:42;4;3;
47808;PMS5003;33573;38.790;-77.084;2024-03-17T00:44:07;5;3;
47808;PMS5003;33573;38.790;-77.084;2024-03-17T00:46:33;8;3;
47808;PMS5003;33573;38.790;-77.084;2024-03-17T00:48:58;3;3;
47808;PMS5003;33573;38.790;-77.084;2024-03-17T00:51:24;3;3;
47808;PMS5003;33573;38.790;-77.084;2024-03-17T00:53:49;2;2;
47808;PMS5003;33573;38.790;-77.084;2024-03-17T00:56:15;4;4;
47808;PMS5003;33573;38.790;-77.084;2024-03-17T00:58:40;4;3;
47808;PMS5003;33573;38.790;-77.084;2024-03-17T01:01:05;4;2;
47808;PMS5003;33573;38.790;-77.084;2024-03-17T01:03:31;2;2;
47808;PMS5003;33573;38.790;-77.084;2024-03-17T01:05:56;3;3;
47808;PMS5003;33573;38.790;-77.084;2024-03-17T01:08:22;7;5;
47808;PMS5003;33573;38.790;-77.084;2024-03-17T01:10:47;4;4;
47808;PMS5003;33573;38.790;-77.084;2024-03-17T01:13:13;5;4;
47808;PMS5003;33573;38.790;-77.084;2024-03-17T01:15:38;5;5;
47808;PMS5003;33573;38.790;-77.084;2024-03-17T01:18:04;4;3;
47808;PMS5003;33573;38.790;-77.084;2024-03-17T01:20:29;3;3;
47808;PMS5003;33573;38.790;-77.084;2024-03-17T01:22:55;4;4;
47808;PMS5003;33573;38.790;-77.084;2024-03-17T01:25:20;3;3;
47808;PMS5003;33573;38.790;-77.084;2024-03-17T01:27:45;5;3;
47808;PMS5003;33573;38.790;-77.084;2024-03-17T01:30:11;5;3;
47808;PMS5003;33573;38.790;-77.084;2024-03-17T01:32:36;5;5;
47808;PMS5003;33573;38.790;-77.084;2024-03-17T01:35:02;6;5;
47808;PMS5003;33573;38.790;-77.084;2024-03-17T01:37:27;7;3;
47808;PMS5003;33573;38.790;-77.084;2024-03-17T01:39:53;4;4;
47808;PMS5003;33573;38.790;-77.084;2024-03-17T01:42:18;4;3;
47808;PMS5003;33573;38.790;-77.084;2024-03-17T01:44:44;3;3;
47808;PMS5003;33573;38.790;-77.084;2024-03-17T01:47:09;4;3;
47808;PMS5003;33573;38.790;-77.084;2024-03-17T01:49:35;3;3;
47808;PMS5003;33573;38.790;-77.084;2024-03-17T01:52:00;2;2;
47808;PMS5003;33573;38.790;-77.084;2024-03-17T01:54:25;3;3;
47808;PMS5003;33573;38.790;-77.084;2024-03-17T01:56:51;5;5;
47808;PMS5003;33573;38.790;-77.084;2024-03-17T01:59:16;3;3;
47808;PMS5003;33573;38.790;-77.084;2024-03-17T02:01:42;3;2;
47808;PMS5003;33573;38.790;-77.084;2024-03-17T02:04:07;2;2;
47808;PMS5003;33573;38.790;-77.084;2024-03-17T02:06:33;5;4;
47808;PMS5003;33573;38.790;-77.084;2024-03-17T02:08:58;1;1;
47808;PMS5003;33573;38.790;-77.084;2024-03-17T02:11:24;3;3;
47808;PMS5003;33573;38.790;-77.084;2024-03-17T02:13:49;3;2;
47808;PMS5003;33573;38.790;-77.084;2024-03-17T02:16:15;4;4;
47808;PMS5003;33573;38.790;-77.084;2024-03-17T02:18:40;1;1;
47808;PMS5003;33573;38.790;-77.084;2024-03-17T02:21:06;3;3;
47808;PMS5003;33573;38.790;-77.084;2024-03-17T02:23:33;3;3;
47808;PMS5003;33573;38.790;-77.084;2024-03-17T02:25:56;4;3;
47808;PMS5003;33573;38.790;-77.084;2024-03-17T02:28:22;5;3;
47808;PMS5003;33573;38.790;-77.084;2024-03-17T02:30:47;3;3;
47808;PMS5003;33573;38.790;-77.084;2024-03-17T02:33:13;2;2;
47808;PMS5003;33573;38.790;-77.084;2024-03-17T02:35:38;3;3;
47808;PMS5003;33573;38.790;-77.084;2024-03-17T02:38:04;4;4;
47808;PMS5003;33573;38.790;-77.084;2024-03-17T02:40:29;2;2;
47808;PMS5003;33573;38.790;-77.084;2024-03-17T02:42:55;5;3;
47808;PMS5003;33573;38.790;-77.084;2024-03-17T02:45:20;5;3;
47808;PMS5003;33573;38.790;-77.084;2024-03-17T02:47:46;3;3;
47808;PMS5003;33573;38.790;-77.084;2024-03-17T02:50:11;3;3;
47808;PMS5003;33573;38.790;-77.084;2024-03-17T02:52:37;5;4;
47808;PMS5003;33573;38.790;-77.084;2024-03-17T02:55:02;4;4;
47808;PMS5003;33573;38.790;-77.084;2024-03-17T02:57:27;2;2;
47808;PMS5003;33573;38.790;-77.084;2024-03-17T02:59:53;4;3;
47808;PMS5003;33573;38.790;-77.084;2024-03-17T03:02:18;3;3;
47808;PMS5003;33573;38.790;-77.084;2024-03-17T03:04:44;3;3;
47808;PMS5003;33573;38.790;-77.084;2024-03-17T03:07:09;3;3;
47808;PMS5003;33573;38.790;-77.084;2024-03-17T03:09:35;3;3;
47808;PMS5003;33573;38.790;-77.084;2024-03-17T03:12:00;4;3;
47808;PMS5003;33573;38.790;-77.084;2024-03-17T03:14:26;3;3;
47808;PMS5003;33573;38.790;-77.084;2024-03-17T03:16:51;3;3;
47808;PMS5003;33573;38.790;-77.084;2024-03-17T03:19:16;3;3;
47808;PMS5003;33573;38.790;-77.084;2024-03-17T03:21:42;3;3;
47808;PMS5003;33573;38.790;-77.084;2024-03-17T03:24:07;5;4;
47808;PMS5003;33573;38.790;-77.084;2024-03-17T03:26:33;6;4;
47808;PMS5003;33573;38.790;-77.084;2024-03-17T03:28:58;5;3;
47808;PMS5003;33573;38.790;-77.084;2024-03-17T03:31:24;4;3;
47808;PMS5003;33573;38.790;-77.084;2024-03-17T03:33:49;3;3;
47808;PMS5003;33573;38.790;-77.084;2024-03-17T03:36:15;3;3;
47808;PMS5003;33573;38.790;-77.084;2024-03-17T03:38:40;5;4;
47808;PMS5003;33573;38.790;-77.084;2024-03-17T03:41:07;3;3;
47808;PMS5003;33573;38.790;-77.084;2024-03-17T03:43:31;4;2;
47808;PMS5003;33573;38.790;-77.084;2024-03-17T03:45:59;3;3;
47808;PMS5003;33573;38.790;-77.084;2024-03-17T03:48:22;3;3;
47808;PMS5003;33573;38.790;-77.084;2024-03-17T03:50:47;2;2;
47808;PMS5003;33573;38.790;-77.084;2024-03-17T03:53:13;2;2;
47808;PMS5003;33573;38.790;-77.084;2024-03-17T03:55:39;2;2;
47808;PMS5003;33573;38.790;-77.084;2024-03-17T03:58:04;2;2;
47808;PMS5003;33573;38.790;-77.084;2024-03-17T04:00:29;4;3;
47808;PMS5003;33573;38.790;-77.084;2024-03-17T04:02:55;4;3;
47808;PMS5003;33573;38.790;-77.084;2024-03-17T04:05:20;4;3;
47808;PMS5003;33573;38.790;-77.084;2024-03-17T04:07:46;2;2;
47808;PMS5003;33573;38.790;-77.084;2024-03-17T04:10:12;3;3;
47808;PMS5003;33573;38.790;-77.084;2024-03-17T04:12:37;3;3;
47808;PMS5003;33573;38.790;-77.084;2024-03-17T04:15:02;3;3;
47808;PMS5003;33573;38.790;-77.084;2024-03-17T04:17:28;4;4;
47808;PMS5003;33573;38.790;-77.084;2024-03-17T04:19:53;3;3;
47808;PMS5003;33573;38.790;-77.084;2024-03-17T04:22:19;4;4;
47808;PMS5003;33573;38.790;-77.084;2024-03-17T04:24:44;4;3;
47808;PMS5003;33573;38.790;-77.084;2024-03-17T04:27:10;2;2;
47808;PMS5003;33573;38.790;-77.084;2024-03-17T04:29:35;3;3;
47808;PMS5003;33573;38.790;-77.084;2024-03-17T04:32:00;3;2;
47808;PMS5003;33573;38.790;-77.084;2024-03-17T04:34:26;3;2;
47808;PMS5003;33573;38.790;-77.084;2024-03-17T04:36:51;3;3;
47808;PMS5003;33573;38.790;-77.084;2024-03-17T04:39:17;4;4;
47808;PMS5003;33573;38.790;-77.084;2024-03-17T04:41:42;4;2;
47808;PMS5003;33573;38.790;-77.084;2024-03-17T04:44:07;2;2;
47808;PMS5003;33573;38.790;-77.084;2024-03-17T04:46:33;4;4;
47808;PMS5003;33573;38.790;-77.084;2024-03-17T04:48:58;3;3;
47808;PMS5003;33573;38.790;-77.084;2024-03-17T04:51:24;2;2;
47808;PMS5003;33573;38.790;-77.084;2024-03-17T04:53:49;3;3;
47808;PMS5003;33573;38.790;-77.084;2024-03-17T04:56:15;2;2;
47808;PMS5003;33573;38.790;-77.084;2024-03-17T04:58:40;3;3;
47808;PMS5003;33573;38.790;-77.084;2024-03-17T05:01:06;4;3;
47808;PMS5003;33573;38.790;-77.084;2024-03-17T05:03:31;2;2;
47808;PMS5003;33573;38.790;-77.084;2024-03-17T05:05:58;4;4;
47808;PMS5003;33573;38.790;-77.084;2024-03-17T05:08:22;3;3;
47808;PMS5003;33573;38.790;-77.084;2024-03-17T05:10:48;4;4;
47808;PMS5003;33573;38.790;-77.084;2024-03-17T05:13:13;5;3;
47808;PMS5003;33573;38.790;-77.084;2024-03-17T05:15:38;5;1;
47808;PMS5003;33573;38.790;-77.084;2024-03-17T05:18:04;3;3;
47808;PMS5003;33573;38.790;-77.084;2024-03-17T05:20:29;3;3;
47808;PMS5003;33573;38.790;-77.084;2024-03-17T05:22:55;1;1;
47808;PMS5003;33573;38.790;-77.084;2024-03-17T05:25:20;3;3;
47808;PMS5003;33573;38.790;-77.084;2024-03-17T05:27:46;4;2;
47808;PMS5003;33573;38.790;-77.084;2024-03-17T05:30:12;3;3;
47808;PMS5003;33573;38.790;-77.084;2024-03-17T05:32:37;2;2;
47808;PMS5003;33573;38.790;-77.084;2024-03-17T05:35:02;4;4;
47808;PMS5003;33573;38.790;-77.084;2024-03-17T05:37:28;3;3;
47808;PMS5003;33573;38.790;-77.084;2024-03-17T05:39:53;3;3;
47808;PMS5003;33573;38.790;-77.084;2024-03-17T05:42:19;2;2;
47808;PMS5003;33573;38.790;-77.084;2024-03-17T05:44:44;5;4;
47808;PMS5003;33573;38.790;-77.084;2024-03-17T05:47:09;4;4;
47808;PMS5003;33573;38.790;-77.084;2024-03-17T05:49:35;3;3;
47808;PMS5003;33573;38.790;-77.084;2024-03-17T05:52:00;4;4;
47808;PMS5003;33573;38.790;-77.084;2024-03-17T05:54:26;2;2;
47808;PMS5003;33573;38.790;-77.084;2024-03-17T05:56:51;2;2;
47808;PMS5003;33573;38.790;-77.084;2024-03-17T05:59:17;1;1;
47808;PMS5003;33573;38.790;-77.084;2024-03-17T06:01:42;2;2;
47808;PMS5003;33573;38.790;-77.084;2024-03-17T06:04:08;4;4;
47808;PMS5003;33573;38.790;-77.084;2024-03-17T06:06:33;3;3;
47808;PMS5003;33573;38.790;-77.084;2024-03-17T06:08:59;3;3;
47808;PMS5003;33573;38.790;-77.084;2024-03-17T06:11:24;4;1;
47808;PMS5003;33573;38.790;-77.084;2024-03-17T06:13:49;3;2;
47808;PMS5003;33573;38.790;-77.084;2024-03-17T06:16:15;2;2;
47808;PMS5003;33573;38.790;-77.084;2024-03-17T06:18:40;3;3;
47808;PMS5003;33573;38.790;-77.084;2024-03-17T06:21:06;3;3;
47808;PMS5003;33573;38.790;-77.084;2024-03-17T06:23:31;3;3;
47808;PMS5003;33573;38.790;-77.084;2024-03-17T06:25:57;2;2;
47808;PMS5003;33573;38.790;-77.084;2024-03-17T06:28:22;3;1;
47808;PMS5003;33573;38.790;-77.084;2024-03-17T06:33:13;3;3;
47808;PMS5003;33573;38.790;-77.084;2024-03-17T06:35:39;4;3;
47808;PMS5003;33573;38.790;-77.084;2024-03-17T06:38:04;3;3;
47808;PMS5003;33573;38.790;-77.084;2024-03-17T06:40:30;4;3;
47808;PMS5003;33573;38.790;-77.084;2024-03-17T06:42:55;4;2;
47808;PMS5003;33573;38.790;-77.084;2024-03-17T06:45:20;3;3;
47808;PMS5003;33573;38.790;-77.084;2024-03-17T06:47:46;2;2;
47808;PMS5003;33573;38.790;-77.084;2024-03-17T06:50:11;4;3;
47808;PMS5003;33573;38.790;-77.084;2024-03-17T06:52:37;1;1;
47808;PMS5003;33573;38.790;-77.084;2024-03-17T06:55:02;2;2;
47808;PMS5003;33573;38.790;-77.084;2024-03-17T06:57:28;1;1;
47808;PMS5003;33573;38.790;-77.084;2024-03-17T06:59:53;3;3;
47808;PMS5003;33573;38.790;-77.084;2024-03-17T07:02:19;2;2;
47808;PMS5003;33573;38.790;-77.084;2024-03-17T07:04:44;3;3;
47808;PMS5003;33573;38.790;-77.084;2024-03-17T07:07:10;3;3;
47808;PMS5003;33573;38.790;-77.084;2024-03-17T07:09:35;4;3;
47808;PMS5003;33573;38.790;-77.084;2024-03-17T07:12:00;2;2;
47808;PMS5003;33573;38.790;-77.084;2024-03-17T07:14:26;3;3;
47808;PMS5003;33573;38.790;-77.084;2024-03-17T07:16:51;2;2;
47808;PMS5003;33573;38.790;-77.084;2024-03-17T07:19:17;3;3;
47808;PMS5003;33573;38.790;-77.084;2024-03-17T07:21:42;4;4;
47808;PMS5003;33573;38.790;-77.084;2024-03-17T07:24:08;3;3;
47808;PMS5003;33573;38.790;-77.084;2024-03-17T07:26:33;3;3;
47808;PMS5003;33573;38.790;-77.084;2024-03-17T07:28:59;5;5;
47808;PMS5003;33573;38.790;-77.084;2024-03-17T07:31:24;2;2;
47808;PMS5003;33573;38.790;-77.084;2024-03-17T07:33:50;3;3;
47808;PMS5003;33573;38.790;-77.084;2024-03-17T07:36:15;1;1;
47808;PMS5003;33573;38.790;-77.084;2024-03-17T07:38:41;5;5;
47808;PMS5003;33573;38.790;-77.084;2024-03-17T07:41:07;2;2;
47808;PMS5003;33573;38.790;-77.084;2024-03-17T07:43:33;2;2;
47808;PMS5003;33573;38.790;-77.084;2024-03-17T07:45:58;4;4;
47808;PMS5003;33573;38.790;-77.084;2024-03-17T07:48:22;4;3;
47808;PMS5003;33573;38.790;-77.084;2024-03-17T07:53:13;2;2;
47808;PMS5003;33573;38.790;-77.084;2024-03-17T07:55:39;1;1;
47808;PMS5003;33573;38.790;-77.084;2024-03-17T07:58:04;4;3;
47808;PMS5003;33573;38.790;-77.084;2024-03-17T08:00:30;4;4;
47808;PMS5003;33573;38.790;-77.084;2024-03-17T08:02:55;4;3;
47808;PMS5003;33573;38.790;-77.084;2024-03-17T08:05:20;3;3;
47808;PMS5003;33573;38.790;-77.084;2024-03-17T08:07:46;3;3;
47808;PMS5003;33573;38.790;-77.084;2024-03-17T08:10:12;3;3;
47808;PMS5003;33573;38.790;-77.084;2024-03-17T08:12:37;3;3;
47808;PMS5003;33573;38.790;-77.084;2024-03-17T08:15:02;2;2;
47808;PMS5003;33573;38.790;-77.084;2024-03-17T08:17:28;4;4;
47808;PMS5003;33573;38.790;-77.084;2024-03-17T08:19:53;4;3;
47808;PMS5003;33573;38.790;-77.084;2024-03-17T08:22:19;4;4;
47808;PMS5003;33573;38.790;-77.084;2024-03-17T08:24:44;3;3;
47808;PMS5003;33573;38.790;-77.084;2024-03-17T08:27:10;3;3;
47808;PMS5003;33573;38.790;-77.084;2024-03-17T08:29:35;3;3;
47808;PMS5003;33573;38.790;-77.084;2024-03-17T08:32:01;3;3;
47808;PMS5003;33573;38.790;-77.084;2024-03-17T08:34:26;4;4;
47808;PMS5003;33573;38.790;-77.084;2024-03-17T08:36:51;3;3;
47808;PMS5003;33573;38.790;-77.084;2024-03-17T08:39:17;3;3;
47808;PMS5003;33573;38.790;-77.084;2024-03-17T08:41:42;4;4;
47808;PMS5003;33573;38.790;-77.084;2024-03-17T08:44:08;1;1;
47808;PMS5003;33573;38.790;-77.084;2024-03-17T08:46:33;2;2;
47808;PMS5003;33573;38.790;-77.084;2024-03-17T08:48:59;2;2;
47808;PMS5003;33573;38.790;-77.084;2024-03-17T08:51:24;3;3;
47808;PMS5003;33573;38.790;-77.084;2024-03-17T08:53:50;3;3;
47808;PMS5003;33573;38.790;-77.084;2024-03-17T08:56:15;4;3;
47808;PMS5003;33573;38.790;-77.084;2024-03-17T08:58:41;3;3;
47808;PMS5003;33573;38.790;-77.084;2024-03-17T09:01:06;3;3;
47808;PMS5003;33573;38.790;-77.084;2024-03-17T09:03:32;3;3;
47808;PMS5003;33573;38.790;-77.084;2024-03-17T09:05:57;3;3;
47808;PMS5003;33573;38.790;-77.084;2024-03-17T09:08:23;4;3;
47808;PMS5003;33573;38.790;-77.084;2024-03-17T09:10:48;2;2;
47808;PMS5003;33573;38.790;-77.084;2024-03-17T09:13:14;4;3;
47808;PMS5003;33573;38.790;-77.084;2024-03-17T09:15:39;4;3;
47808;PMS5003;33573;38.790;-77.084;2024-03-17T09:18:04;4;4;
47808;PMS5003;33573;38.790;-77.084;2024-03-17T09:20:30;5;3;
47808;PMS5003;33573;38.790;-77.084;2024-03-17T09:22:55;3;3;
47808;PMS5003;33573;38.790;-77.084;2024-03-17T09:25:21;3;3;
47808;PMS5003;33573;38.790;-77.084;2024-03-17T09:27:46;3;3;
47808;PMS5003;33573;38.790;-77.084;2024-03-17T09:30:12;4;2;
47808;PMS5003;33573;38.790;-77.084;2024-03-17T09:32:37;4;3;
47808;PMS5003;33573;38.790;-77.084;2024-03-17T09:35:03;3;3;
47808;PMS5003;33573;38.790;-77.084;2024-03-17T09:37:28;3;3;
47808;PMS5003;33573;38.790;-77.084;2024-03-17T09:39:53;4;4;
47808;PMS5003;33573;38.790;-77.084;2024-03-17T09:42:19;3;3;
47808;PMS5003;33573;38.790;-77.084;2024-03-17T09:44:46;5;3;
47808;PMS5003;33573;38.790;-77.084;2024-03-17T09:47:10;2;1;
47808;PMS5003;33573;38.790;-77.084;2024-03-17T09:49:35;1;1;
47808;PMS5003;33573;38.790;-77.084;2024-03-17T09:52:01;3;3;
47808;PMS5003;33573;38.790;-77.084;2024-03-17T09:54:26;2;2;
47808;PMS5003;33573;38.790;-77.084;2024-03-17T09:56:51;3;3;
47808;PMS5003;33573;38.790;-77.084;2024-03-17T09:59:17;2;2;
47808;PMS5003;33573;38.790;-77.084;2024-03-17T10:01:42;1;1;
47808;PMS5003;33573;38.790;-77.084;2024-03-17T10:04:08;4;2;
47808;PMS5003;33573;38.790;-77.084;2024-03-17T10:06:33;4;4;
47808;PMS5003;33573;38.790;-77.084;2024-03-17T10:08:59;2;2;
47808;PMS5003;33573;38.790;-77.084;2024-03-17T10:11:25;3;3;
47808;PMS5003;33573;38.790;-77.084;2024-03-17T10:16:20;3;3;
47808;PMS5003;33573;38.790;-77.084;2024-03-17T10:18:41;3;3;
47808;PMS5003;33573;38.790;-77.084;2024-03-17T10:21:08;4;3;
47808;PMS5003;33573;38.790;-77.084;2024-03-17T10:23:31;1;1;
47808;PMS5003;33573;38.790;-77.084;2024-03-17T10:25:57;2;2;
47808;PMS5003;33573;38.790;-77.084;2024-03-17T10:28:22;3;2;
47808;PMS5003;33573;38.790;-77.084;2024-03-17T10:35:39;2;2;
47808;PMS5003;33573;38.790;-77.084;2024-03-17T10:38:05;2;2;
47808;PMS5003;33573;38.790;-77.084;2024-03-17T10:40:30;3;2;
47808;PMS5003;33573;38.790;-77.084;2024-03-17T10:42:56;1;0;
47808;PMS5003;33573;38.790;-77.084;2024-03-17T10:45:21;2;2;
47808;PMS5003;33573;38.790;-77.084;2024-03-17T10:47:47;1;1;
47808;PMS5003;33573;38.790;-77.084;2024-03-17T10:50:12;2;2;
47808;PMS5003;33573;38.790;-77.084;2024-03-17T10:52:37;4;2;
47808;PMS5003;33573;38.790;-77.084;2024-03-17T10:55:05;2;2;
47808;PMS5003;33573;38.790;-77.084;2024-03-17T10:57:30;2;2;
47808;PMS5003;33573;38.790;-77.084;2024-03-17T10:59:53;2;2;
47808;PMS5003;33573;38.790;-77.084;2024-03-17T11:02:21;1;1;
47808;PMS5003;33573;38.790;-77.084;2024-03-17T11:04:44;1;1;
47808;PMS5003;33573;38.790;-77.084;2024-03-17T11:07:10;2;2;
47808;PMS5003;33573;38.790;-77.084;2024-03-17T11:09:35;3;3;
47808;PMS5003;33573;38.790;-77.084;2024-03-17T11:12:00;3;3;
47808;PMS5003;33573;38.790;-77.084;2024-03-17T11:14:26;2;2;
47808;PMS5003;33573;38.790;-77.084;2024-03-17T11:16:51;3;2;
47808;PMS5003;33573;38.790;-77.084;2024-03-17T11:19:17;1;1;
47808;PMS5003;33573;38.790;-77.084;2024-03-17T11:21:43;2;2;
47808;PMS5003;33573;38.790;-77.084;2024-03-17T11:24:17;2;2;
47808;PMS5003;33573;38.790;-77.084;2024-03-17T11:26:33;2;2;
47808;PMS5003;33573;38.790;-77.084;2024-03-17T11:28:59;2;2;
47808;PMS5003;33573;38.790;-77.084;2024-03-17T11:31:34;1;1;
47808;PMS5003;33573;38.790;-77.084;2024-03-17T11:33:49;3;3;
47808;PMS5003;33573;38.790;-77.084;2024-03-17T11:43:31;3;3;
47808;PMS5003;33573;38.790;-77.084;2024-03-17T11:45:57;2;2;
47808;PMS5003;33573;38.790;-77.084;2024-03-17T11:48:22;3;3;
47808;PMS5003;33573;38.790;-77.084;2024-03-17T11:50:48;2;2;
47808;PMS5003;33573;38.790;-77.084;2024-03-17T11:53:13;2;2;
47808;PMS5003;33573;38.790;-77.084;2024-03-17T11:55:39;1;1;
47808;PMS5003;33573;38.790;-77.084;2024-03-17T11:58:04;3;2;
47808;PMS5003;33573;38.790;-77.084;2024-03-17T12:00:29;1;1;
47808;PMS5003;33573;38.790;-77.084;2024-03-17T12:02:55;5;3;
47808;PMS5003;33573;38.790;-77.084;2024-03-17T12:05:20;3;3;
47808;PMS5003;33573;38.790;-77.084;2024-03-17T12:07:46;2;2;
47808;PMS5003;33573;38.790;-77.084;2024-03-17T12:10:12;3;3;
47808;PMS5003;33573;38.790;-77.084;2024-03-17T12:12:37;1;1;
47808;PMS5003;33573;38.790;-77.084;2024-03-17T12:15:03;2;2;
47808;PMS5003;33573;38.790;-77.084;2024-03-17T12:17:28;2;2;
47808;PMS5003;33573;38.790;-77.084;2024-03-17T12:19:53;3;3;
47808;PMS5003;33573;38.790;-77.084;2024-03-17T12:22:19;2;2;
47808;PMS5003;33573;38.790;-77.084;2024-03-17T12:24:44;2;2;
47808;PMS5003;33573;38.790;-77.084;2024-03-17T12:27:10;2;2;
47808;PMS5003;33573;38.790;-77.084;2024-03-17T12:29:35;2;2;
47808;PMS5003;33573;38.790;-77.084;2024-03-17T12:32:01;2;2;
47808;PMS5003;33573;38.790;-77.084;2024-03-17T12:34:26;3;3;
47808;PMS5003;33573;38.790;-77.084;2024-03-17T12:36:51;3;3;
47808;PMS5003;33573;38.790;-77.084;2024-03-17T12:39:18;4;2;
47808;PMS5003;33573;38.790;-77.084;2024-03-17T12:41:42;2;2;
47808;PMS5003;33573;38.790;-77.084;2024-03-17T12:44:08;2;2;
47808;PMS5003;33573;38.790;-77.084;2024-03-17T12:46:33;3;3;
47808;PMS5003;33573;38.790;-77.084;2024-03-17T12:48:59;1;1;
47808;PMS5003;33573;38.790;-77.084;2024-03-17T12:51:24;3;2;
47808;PMS5003;33573;38.790;-77.084;2024-03-17T12:53:50;1;1;
47808;PMS5003;33573;38.790;-77.084;2024-03-17T12:58:40;2;2;
47808;PMS5003;33573;38.790;-77.084;2024-03-17T13:01:06;2;2;
47808;PMS5003;33573;38.790;-77.084;2024-03-17T13:03:32;2;2;
47808;PMS5003;33573;38.790;-77.084;2024-03-17T13:05:57;3;3;
47808;PMS5003;33573;38.790;-77.084;2024-03-17T13:08:22;2;2;
47808;PMS5003;33573;38.790;-77.084;2024-03-17T13:10:47;4;4;
47808;PMS5003;33573;38.790;-77.084;2024-03-17T13:13:13;2;2;
47808;PMS5003;33573;38.790;-77.084;2024-03-17T13:15:38;4;4;
47808;PMS5003;33573;38.790;-77.084;2024-03-17T13:18:04;3;2;
47808;PMS5003;33573;38.790;-77.084;2024-03-17T13:20:30;2;2;
47808;PMS5003;33573;38.790;-77.084;2024-03-17T13:22:55;3;3;
47808;PMS5003;33573;38.790;-77.084;2024-03-17T13:25:21;1;1;
47808;PMS5003;33573;38.790;-77.084;2024-03-17T13:27:46;1;1;
47808;PMS5003;33573;38.790;-77.084;2024-03-17T13:30:11;3;2;
47808;PMS5003;33573;38.790;-77.084;2024-03-17T13:32:36;2;2;
47808;PMS5003;33573;38.790;-77.084;2024-03-17T13:35:02;2;2;
47808;PMS5003;33573;38.790;-77.084;2024-03-17T13:37:27;2;2;
47808;PMS5003;33573;38.790;-77.084;2024-03-17T13:39:53;2;2;
47808;PMS5003;33573;38.790;-77.084;2024-03-17T13:42:18;2;2;
47808;PMS5003;33573;38.790;-77.084;2024-03-17T13:44:44;2;2;
47808;PMS5003;33573;38.790;-77.084;2024-03-17T13:47:09;7;3;
47808;PMS5003;33573;38.790;-77.084;2024-03-17T13:49:35;5;3;
47808;PMS5003;33573;38.790;-77.084;2024-03-17T13:52:00;4;4;
47808;PMS5003;33573;38.790;-77.084;2024-03-17T13:54:26;9;8;
47808;PMS5003;33573;38.790;-77.084;2024-03-17T13:56:51;16;16;
47808;PMS5003;33573;38.790;-77.084;2024-03-17T13:59:16;14;14;
47808;PMS5003;33573;38.790;-77.084;2024-03-17T14:01:42;12;12;
47808;PMS5003;33573;38.790;-77.084;2024-03-17T14:04:08;13;11;
47808;PMS5003;33573;38.790;-77.084;2024-03-17T14:06:32;14;13;
47808;PMS5003;33573;38.790;-77.084;2024-03-17T14:08:58;12;10;
47808;PMS5003;33573;38.790;-77.084;2024-03-17T14:11:23;13;11;
47808;PMS5003;33573;38.790;-77.084;2024-03-17T14:13:49;9;9;
47808;PMS5003;33573;38.790;-77.084;2024-03-17T14:16:14;11;8;
47808;PMS5003;33573;38.790;-77.084;2024-03-17T14:18:40;15;11;
47808;PMS5003;33573;38.790;-77.084;2024-03-17T14:21:05;9;7;
47808;PMS5003;33573;38.790;-77.084;2024-03-17T14:23:30;7;7;
47808;PMS5003;33573;38.790;-77.084;2024-03-17T14:25:56;8;7;
47808;PMS5003;33573;38.790;-77.084;2024-03-17T14:28:21;7;7;
47808;PMS5003;33573;38.790;-77.084;2024-03-17T14:30:47;7;5;
47808;PMS5003;33573;38.790;-77.084;2024-03-17T14:33:12;6;6;
47808;PMS5003;33573;38.790;-77.084;2024-03-17T14:35:38;8;7;
47808;PMS5003;33573;38.790;-77.084;2024-03-17T14:38:03;6;6;
47808;PMS5003;33573;38.790;-77.084;2024-03-17T14:40:28;7;7;
47808;PMS5003;33573;38.790;-77.084;2024-03-17T14:42:54;4;4;
47808;PMS5003;33573;38.790;-77.084;2024-03-17T14:45:20;6;6;
47808;PMS5003;33573;38.790;-77.084;2024-03-17T14:47:44;6;6;
47808;PMS5003;33573;38.790;-77.084;2024-03-17T14:50:10;4;4;
47808;PMS5003;33573;38.790;-77.084;2024-03-17T14:52:35;5;4;
47808;PMS5003;33573;38.790;-77.084;2024-03-17T14:55:01;8;5;
47808;PMS5003;33573;38.790;-77.084;2024-03-17T14:57:26;5;4;
47808;PMS5003;33573;38.790;-77.084;2024-03-17T14:59:51;4;4;
47808;PMS5003;33573;38.790;-77.084;2024-03-17T15:02:17;4;4;
47808;PMS5003;33573;38.790;-77.084;2024-03-17T15:04:42;7;4;
47808;PMS5003;33573;38.790;-77.084;2024-03-17T15:07:08;5;4;
47808;PMS5003;33573;38.790;-77.084;2024-03-17T15:09:33;4;4;
47808;PMS5003;33573;38.790;-77.084;2024-03-17T15:11:59;5;5;
47808;PMS5003;33573;38.790;-77.084;2024-03-17T15:14:24;3;3;
47808;PMS5003;33573;38.790;-77.084;2024-03-17T15:16:49;5;3;
47808;PMS5003;33573;38.790;-77.084;2024-03-17T15:19:15;3;3;
47808;PMS5003;33573;38.790;-77.084;2024-03-17T15:21:40;3;3;
47808;PMS5003;33573;38.790;-77.084;2024-03-17T15:24:06;4;4;
47808;PMS5003;33573;38.790;-77.084;2024-03-17T15:26:31;2;2;
47808;PMS5003;33573;38.790;-77.084;2024-03-17T15:28:57;2;2;
47808;PMS5003;33573;38.790;-77.084;2024-03-17T15:31:22;4;3;
47808;PMS5003;33573;38.790;-77.084;2024-03-17T15:33:49;5;3;
47808;PMS5003;33573;38.790;-77.084;2024-03-17T15:36:13;5;2;
47808;PMS5003;33573;38.790;-77.084;2024-03-17T15:38:39;4;3;
47808;PMS5003;33573;38.790;-77.084;2024-03-17T15:41:04;3;3;
47808;PMS5003;33573;38.790;-77.084;2024-03-17T15:43:29;2;2;
47808;PMS5003;33573;38.790;-77.084;2024-03-17T15:45:55;2;2;
47808;PMS5003;33573;38.790;-77.084;2024-03-17T15:48:20;2;2;
47808;PMS5003;33573;38.790;-77.084;2024-03-17T15:53:11;6;5;
47808;PMS5003;33573;38.790;-77.084;2024-03-17T15:55:37;4;4;
47808;PMS5003;33573;38.790;-77.084;2024-03-17T15:58:02;4;4;
47808;PMS5003;33573;38.790;-77.084;2024-03-17T16:00:28;3;3;
47808;PMS5003;33573;38.790;-77.084;2024-03-17T16:02:53;4;4;
47808;PMS5003;33573;38.790;-77.084;2024-03-17T16:05:19;4;4;
47808;PMS5003;33573;38.790;-77.084;2024-03-17T16:07:44;4;4;
47808;PMS5003;33573;38.790;-77.084;2024-03-17T16:10:10;2;2;
47808;PMS5003;33573;38.790;-77.084;2024-03-17T16:12:35;3;3;
47808;PMS5003;33573;38.790;-77.084;2024-03-17T16:15:00;3;3;
47808;PMS5003;33573;38.790;-77.084;2024-03-17T16:17:26;3;3;
47808;PMS5003;33573;38.790;-77.084;2024-03-17T16:19:51;3;3;
47808;PMS5003;33573;38.790;-77.084;2024-03-17T16:22:17;3;3;
47808;PMS5003;33573;38.790;-77.084;2024-03-17T16:24:42;3;3;
47808;PMS5003;33573;38.790;-77.084;2024-03-17T16:27:08;3;2;